Aviation Digital Data Service (ADDS)

Output produced by METARs form (2156 UTC 24 March 2017)
found at http://aviationweather.gov/adds/metars/
 
KJXN 241723Z 2418/2518 23021G26KT P6SM OVC080 
     FM250000 22007KT 4SM BR VCTS OVC015CB 
     FM250200 20007KT 2SM -TSRA BR OVC009CB 
     FM250500 20008KT 1 1/2SM -SHRA BR VCTS OVC004CB 
     FM250900 07005KT 4SM -RA BR OVC003 
     FM251100 04005KT 1 1/2SM -RA BR OVC003 
     FM251400 06006KT 1/2SM -RA FG VV001